sensor_id;sensor_type;location;lat;lon;timestamp;pressure;altitude;pressure_sealevel;temperature;humidity
58757;BME280;44527;47.460;19.016;2023-07-02T00:01:23;99285.28;;;21.75;86.98
58757;BME280;44527;47.460;19.016;2023-07-02T00:04:26;99288.38;;;21.78;86.47
58757;BME280;44527;47.460;19.016;2023-07-02T00:07:28;99293.72;;;21.78;86.88
58757;BME280;44527;47.460;19.016;2023-07-02T00:10:30;99302.00;;;21.97;85.42
58757;BME280;44527;47.460;19.016;2023-07-02T00:13:33;99294.78;;;21.91;86.09
58757;BME280;44527;47.460;19.016;2023-07-02T00:16:43;99288.47;;;21.98;85.27
58757;BME280;44527;47.460;19.016;2023-07-02T00:19:45;99292.53;;;21.88;85.76
58757;BME280;44527;47.460;19.016;2023-07-02T00:22:49;99291.91;;;21.86;86.00
58757;BME280;44527;47.460;19.016;2023-07-02T00:25:51;99286.13;;;21.82;86.22
58757;BME280;44527;47.460;19.016;2023-07-02T00:28:54;99285.47;;;21.67;87.02
58757;BME280;44527;47.460;19.016;2023-07-02T00:31:57;99288.53;;;21.64;87.19
58757;BME280;44527;47.460;19.016;2023-07-02T00:35:00;99290.63;;;21.75;85.86
58757;BME280;44527;47.460;19.016;2023-07-02T00:38:03;99293.56;;;21.87;83.82
58757;BME280;44527;47.460;19.016;2023-07-02T00:41:05;99279.69;;;21.63;85.22
58757;BME280;44527;47.460;19.016;2023-07-02T00:44:08;99283.41;;;21.62;85.26
58757;BME280;44527;47.460;19.016;2023-07-02T00:47:11;99289.78;;;21.61;85.00
58757;BME280;44527;47.460;19.016;2023-07-02T00:50:14;99288.56;;;21.70;84.56
58757;BME280;44527;47.460;19.016;2023-07-02T00:53:17;99290.59;;;21.62;84.70
58757;BME280;44527;47.460;19.016;2023-07-02T00:56:20;99283.00;;;21.65;84.42
58757;BME280;44527;47.460;19.016;2023-07-02T00:59:23;99287.72;;;21.70;84.28
58757;BME280;44527;47.460;19.016;2023-07-02T01:02:27;99286.69;;;21.64;84.85
58757;BME280;44527;47.460;19.016;2023-07-02T01:05:32;99293.63;;;21.52;85.07
58757;BME280;44527;47.460;19.016;2023-07-02T01:08:37;99288.31;;;21.59;84.45
58757;BME280;44527;47.460;19.016;2023-07-02T01:11:43;99285.00;;;21.56;83.86
58757;BME280;44527;47.460;19.016;2023-07-02T01:14:51;99295.28;;;21.60;81.53
58757;BME280;44527;47.460;19.016;2023-07-02T01:17:56;99289.25;;;21.86;76.06
58757;BME280;44527;47.460;19.016;2023-07-02T01:20:59;99291.53;;;21.89;74.82
58757;BME280;44527;47.460;19.016;2023-07-02T01:24:04;99286.59;;;21.92;74.94
58757;BME280;44527;47.460;19.016;2023-07-02T01:27:07;99285.37;;;21.95;75.25
58757;BME280;44527;47.460;19.016;2023-07-02T01:30:10;99291.53;;;21.95;75.01
58757;BME280;44527;47.460;19.016;2023-07-02T01:33:13;99283.72;;;21.94;73.09
58757;BME280;44527;47.460;19.016;2023-07-02T01:36:15;99290.72;;;21.95;74.65
58757;BME280;44527;47.460;19.016;2023-07-02T01:39:17;99292.94;;;21.91;74.79
58757;BME280;44527;47.460;19.016;2023-07-02T01:42:20;99292.34;;;21.89;75.24
58757;BME280;44527;47.460;19.016;2023-07-02T01:45:23;99281.69;;;21.96;75.42
58757;BME280;44527;47.460;19.016;2023-07-02T01:48:25;99289.84;;;21.81;75.10
58757;BME280;44527;47.460;19.016;2023-07-02T01:51:28;99289.03;;;21.87;74.22
58757;BME280;44527;47.460;19.016;2023-07-02T01:54:31;99293.56;;;21.87;73.56
58757;BME280;44527;47.460;19.016;2023-07-02T01:57:34;99296.66;;;21.90;73.64
58757;BME280;44527;47.460;19.016;2023-07-02T02:00:39;99299.53;;;21.89;73.16
58757;BME280;44527;47.460;19.016;2023-07-02T02:03:41;99294.19;;;21.89;71.98
58757;BME280;44527;47.460;19.016;2023-07-02T02:06:44;99286.81;;;21.97;71.40
58757;BME280;44527;47.460;19.016;2023-07-02T02:09:47;99295.62;;;21.91;72.76
58757;BME280;44527;47.460;19.016;2023-07-02T02:12:49;99294.78;;;21.91;72.59
58757;BME280;44527;47.460;19.016;2023-07-02T02:15:54;99281.66;;;21.89;71.74
58757;BME280;44527;47.460;19.016;2023-07-02T02:18:56;99285.94;;;21.84;71.93
58757;BME280;44527;47.460;19.016;2023-07-02T02:21:59;99289.44;;;21.84;71.99
58757;BME280;44527;47.460;19.016;2023-07-02T02:25:02;99278.75;;;21.77;72.01
58757;BME280;44527;47.460;19.016;2023-07-02T02:28:05;99277.69;;;21.78;72.46
58757;BME280;44527;47.460;19.016;2023-07-02T02:31:08;99274.44;;;21.76;71.10
58757;BME280;44527;47.460;19.016;2023-07-02T02:34:11;99269.66;;;21.72;70.08
58757;BME280;44527;47.460;19.016;2023-07-02T02:37:13;99267.25;;;21.84;68.71
58757;BME280;44527;47.460;19.016;2023-07-02T02:40:16;99268.84;;;21.71;68.81
58757;BME280;44527;47.460;19.016;2023-07-02T02:43:18;99267.41;;;21.75;69.12
58757;BME280;44527;47.460;19.016;2023-07-02T02:46:21;99275.63;;;21.67;69.64
58757;BME280;44527;47.460;19.016;2023-07-02T02:49:24;99267.56;;;21.61;70.55
58757;BME280;44527;47.460;19.016;2023-07-02T02:52:27;99259.75;;;21.59;70.74
58757;BME280;44527;47.460;19.016;2023-07-02T02:55:29;99268.00;;;21.64;70.66
58757;BME280;44527;47.460;19.016;2023-07-02T02:58:31;99267.75;;;21.52;70.87
58757;BME280;44527;47.460;19.016;2023-07-02T03:01:34;99261.53;;;21.45;70.70
58757;BME280;44527;47.460;19.016;2023-07-02T03:04:36;99272.47;;;21.57;69.88
58757;BME280;44527;47.460;19.016;2023-07-02T03:07:42;99272.47;;;21.57;70.51
58757;BME280;44527;47.460;19.016;2023-07-02T03:10:45;99269.94;;;21.42;71.35
58757;BME280;44527;47.460;19.016;2023-07-02T03:13:47;99277.13;;;21.42;69.16
58757;BME280;44527;47.460;19.016;2023-07-02T03:16:50;99275.91;;;21.44;69.23
58757;BME280;44527;47.460;19.016;2023-07-02T03:19:53;99279.41;;;21.45;68.34
58757;BME280;44527;47.460;19.016;2023-07-02T03:22:55;99280.69;;;21.49;68.44
58757;BME280;44527;47.460;19.016;2023-07-02T03:25:57;99273.09;;;21.52;68.06
58757;BME280;44527;47.460;19.016;2023-07-02T03:29:01;99280.88;;;21.54;67.26
58757;BME280;44527;47.460;19.016;2023-07-02T03:32:04;99283.97;;;21.57;67.29
58757;BME280;44527;47.460;19.016;2023-07-02T03:35:07;99284.19;;;21.56;67.29
58757;BME280;44527;47.460;19.016;2023-07-02T03:38:09;99282.56;;;21.62;66.18
58757;BME280;44527;47.460;19.016;2023-07-02T03:41:11;99282.00;;;21.73;66.27
58757;BME280;44527;47.460;19.016;2023-07-02T03:44:14;99283.22;;;21.70;65.89
58757;BME280;44527;47.460;19.016;2023-07-02T03:47:16;99292.72;;;21.79;65.48
58757;BME280;44527;47.460;19.016;2023-07-02T03:50:21;99293.56;;;21.87;65.68
58757;BME280;44527;47.460;19.016;2023-07-02T03:53:24;99299.31;;;21.84;65.38
58757;BME280;44527;47.460;19.016;2023-07-02T03:56:26;99301.75;;;21.85;65.60
58757;BME280;44527;47.460;19.016;2023-07-02T03:59:29;99298.50;;;21.90;64.77
58757;BME280;44527;47.460;19.016;2023-07-02T04:02:31;99307.94;;;21.86;65.07
58757;BME280;44527;47.460;19.016;2023-07-02T04:05:34;99300.13;;;21.91;64.78
58757;BME280;44527;47.460;19.016;2023-07-02T04:08:36;99295.06;;;22.16;63.60
58757;BME280;44527;47.460;19.016;2023-07-02T04:11:39;99295.28;;;22.14;64.06
58757;BME280;44527;47.460;19.016;2023-07-02T04:14:41;99301.44;;;22.08;64.41
58757;BME280;44527;47.460;19.016;2023-07-02T04:17:45;99303.28;;;22.08;65.25
58757;BME280;44527;47.460;19.016;2023-07-02T04:20:48;99304.28;;;22.07;65.99
58757;BME280;44527;47.460;19.016;2023-07-02T04:23:51;99308.09;;;22.25;66.18
58757;BME280;44527;47.460;19.016;2023-07-02T04:26:54;99303.81;;;22.38;64.23
58757;BME280;44527;47.460;19.016;2023-07-02T04:30:16;99312.88;;;22.50;64.87
58757;BME280;44527;47.460;19.016;2023-07-02T04:33:19;99315.56;;;22.63;63.24
58757;BME280;44527;47.460;19.016;2023-07-02T04:36:21;99315.16;;;22.80;62.41
58757;BME280;44527;47.460;19.016;2023-07-02T04:39:24;99316.59;;;22.82;63.03
58757;BME280;44527;47.460;19.016;2023-07-02T04:42:26;99323.00;;;23.01;62.42
58757;BME280;44527;47.460;19.016;2023-07-02T04:45:33;99324.03;;;23.00;62.43
58757;BME280;44527;47.460;19.016;2023-07-02T04:48:39;99322.16;;;23.07;62.58
58757;BME280;44527;47.460;19.016;2023-07-02T04:51:44;99329.53;;;23.45;61.31
58757;BME280;44527;47.460;19.016;2023-07-02T04:54:47;99334.66;;;23.47;61.21
58757;BME280;44527;47.460;19.016;2023-07-02T04:57:52;99335.22;;;23.82;60.12
58757;BME280;44527;47.460;19.016;2023-07-02T05:00:57;99333.31;;;23.96;60.46
58757;BME280;44527;47.460;19.016;2023-07-02T05:03:59;99340.47;;;24.08;61.36
58757;BME280;44527;47.460;19.016;2023-07-02T05:07:03;99347.31;;;24.36;58.38
58757;BME280;44527;47.460;19.016;2023-07-02T05:10:07;99344.38;;;24.51;58.55
58757;BME280;44527;47.460;19.016;2023-07-02T05:13:09;99347.88;;;24.83;59.18
58757;BME280;44527;47.460;19.016;2023-07-02T05:16:11;99353.81;;;25.60;56.65
58757;BME280;44527;47.460;19.016;2023-07-02T05:19:14;99359.59;;;26.31;54.71
58757;BME280;44527;47.460;19.016;2023-07-02T05:22:17;99365.00;;;27.50;50.17
58757;BME280;44527;47.460;19.016;2023-07-02T05:25:21;99352.75;;;27.94;48.87
58757;BME280;44527;47.460;19.016;2023-07-02T05:28:24;99364.94;;;28.66;46.50
58757;BME280;44527;47.460;19.016;2023-07-02T05:31:27;99362.59;;;29.76;43.20
58757;BME280;44527;47.460;19.016;2023-07-02T05:34:31;99366.03;;;29.93;42.46
58757;BME280;44527;47.460;19.016;2023-07-02T05:37:33;99369.88;;;29.37;43.17
58757;BME280;44527;47.460;19.016;2023-07-02T05:40:36;99372.81;;;29.35;42.63
58757;BME280;44527;47.460;19.016;2023-07-02T05:43:38;99375.53;;;28.56;44.86
58757;BME280;44527;47.460;19.016;2023-07-02T05:46:41;99371.53;;;27.89;48.24
58757;BME280;44527;47.460;19.016;2023-07-02T05:49:43;99377.50;;;27.09;49.76
58757;BME280;44527;47.460;19.016;2023-07-02T05:52:45;99379.81;;;26.82;50.90
58757;BME280;44527;47.460;19.016;2023-07-02T05:55:48;99380.81;;;26.39;53.17
58757;BME280;44527;47.460;19.016;2023-07-02T05:58:51;99375.87;;;26.36;52.45
58757;BME280;44527;47.460;19.016;2023-07-02T06:01:54;99375.87;;;26.36;53.38
58757;BME280;44527;47.460;19.016;2023-07-02T06:04:57;99387.81;;;26.40;52.36
58757;BME280;44527;47.460;19.016;2023-07-02T06:08:00;99393.00;;;26.42;52.04
58757;BME280;44527;47.460;19.016;2023-07-02T06:11:02;99391.91;;;26.61;51.93
58757;BME280;44527;47.460;19.016;2023-07-02T06:14:04;99395.88;;;26.58;51.18
58757;BME280;44527;47.460;19.016;2023-07-02T06:17:07;99393.75;;;26.49;51.10
58757;BME280;44527;47.460;19.016;2023-07-02T06:20:10;99397.28;;;26.61;51.74
58757;BME280;44527;47.460;19.016;2023-07-02T06:23:13;99397.91;;;26.63;51.89
58757;BME280;44527;47.460;19.016;2023-07-02T06:26:16;99402.81;;;26.66;51.68
58757;BME280;44527;47.460;19.016;2023-07-02T06:29:18;99396.44;;;26.91;49.70
58757;BME280;44527;47.460;19.016;2023-07-02T06:32:20;99402.78;;;27.08;49.73
58757;BME280;44527;47.460;19.016;2023-07-02T06:35:23;99396.41;;;27.33;48.71
58757;BME280;44527;47.460;19.016;2023-07-02T06:38:25;99409.06;;;27.79;47.60
58757;BME280;44527;47.460;19.016;2023-07-02T06:41:28;99404.47;;;28.44;43.03
58757;BME280;44527;47.460;19.016;2023-07-02T06:44:30;99404.94;;;28.40;41.59
58757;BME280;44527;47.460;19.016;2023-07-02T06:47:33;99415.78;;;28.57;43.33
58757;BME280;44527;47.460;19.016;2023-07-02T06:50:35;99409.62;;;28.91;40.45
58757;BME280;44527;47.460;19.016;2023-07-02T06:53:38;99412.38;;;29.24;39.72
58757;BME280;44527;47.460;19.016;2023-07-02T06:56:40;99421.63;;;30.45;36.95
58757;BME280;44527;47.460;19.016;2023-07-02T06:59:43;99419.59;;;31.91;34.65
58757;BME280;44527;47.460;19.016;2023-07-02T07:02:45;99423.69;;;33.69;31.46
58757;BME280;44527;47.460;19.016;2023-07-02T07:05:48;99433.75;;;33.74;30.99
58757;BME280;44527;47.460;19.016;2023-07-02T07:08:50;99440.72;;;34.16;30.88
58757;BME280;44527;47.460;19.016;2023-07-02T07:11:53;99446.81;;;33.72;30.87
58757;BME280;44527;47.460;19.016;2023-07-02T07:14:55;99445.16;;;32.84;31.52
58757;BME280;44527;47.460;19.016;2023-07-02T07:17:58;99446.22;;;32.67;32.19
58757;BME280;44527;47.460;19.016;2023-07-02T07:21:00;99449.78;;;32.78;32.43
58757;BME280;44527;47.460;19.016;2023-07-02T07:24:03;99451.47;;;33.15;32.01
58757;BME280;44527;47.460;19.016;2023-07-02T07:27:06;99452.00;;;33.48;32.20
58757;BME280;44527;47.460;19.016;2023-07-02T07:30:09;99455.91;;;35.50;30.47
58757;BME280;44527;47.460;19.016;2023-07-02T07:33:11;99458.75;;;36.41;28.28
58757;BME280;44527;47.460;19.016;2023-07-02T07:36:14;99463.50;;;37.77;25.63
58757;BME280;44527;47.460;19.016;2023-07-02T07:39:16;99467.59;;;37.93;24.91
58757;BME280;44527;47.460;19.016;2023-07-02T07:42:18;99469.19;;;38.08;24.79
58757;BME280;44527;47.460;19.016;2023-07-02T07:45:21;99473.06;;;38.21;24.78
58757;BME280;44527;47.460;19.016;2023-07-02T07:48:23;99464.44;;;38.41;24.05
58757;BME280;44527;47.460;19.016;2023-07-02T07:51:26;99474.34;;;38.37;24.41
58757;BME280;44527;47.460;19.016;2023-07-02T07:54:33;99469.75;;;38.60;24.24
58757;BME280;44527;47.460;19.016;2023-07-02T07:57:37;99473.63;;;37.62;25.47
58757;BME280;44527;47.460;19.016;2023-07-02T08:00:40;99474.06;;;37.04;26.03
58757;BME280;44527;47.460;19.016;2023-07-02T08:03:42;99467.69;;;36.28;27.38
58757;BME280;44527;47.460;19.016;2023-07-02T08:06:45;99474.56;;;35.96;27.07
58757;BME280;44527;47.460;19.016;2023-07-02T08:09:48;99475.34;;;35.14;28.02
58757;BME280;44527;47.460;19.016;2023-07-02T08:12:51;99476.09;;;34.21;28.92
58757;BME280;44527;47.460;19.016;2023-07-02T08:15:57;99470.78;;;33.13;30.97
58757;BME280;44527;47.460;19.016;2023-07-02T08:19:00;99474.84;;;32.22;32.26
58757;BME280;44527;47.460;19.016;2023-07-02T08:22:03;99485.50;;;31.87;32.59
58757;BME280;44527;47.460;19.016;2023-07-02T08:25:06;99488.09;;;30.58;35.95
58757;BME280;44527;47.460;19.016;2023-07-02T08:28:09;99489.38;;;30.50;37.21
58757;BME280;44527;47.460;19.016;2023-07-02T08:31:12;99492.22;;;31.14;38.04
58757;BME280;44527;47.460;19.016;2023-07-02T08:34:14;99489.34;;;31.58;38.13
58757;BME280;44527;47.460;19.016;2023-07-02T08:37:20;99484.59;;;32.18;36.80
58757;BME280;44527;47.460;19.016;2023-07-02T08:40:23;99490.87;;;32.29;37.05
58757;BME280;44527;47.460;19.016;2023-07-02T08:43:26;99500.25;;;31.96;35.65
58757;BME280;44527;47.460;19.016;2023-07-02T08:46:30;99519.22;;;31.96;35.57
58757;BME280;44527;47.460;19.016;2023-07-02T08:49:32;99511.38;;;31.99;34.67
58757;BME280;44527;47.460;19.016;2023-07-02T08:52:34;99517.56;;;31.90;35.38
58757;BME280;44527;47.460;19.016;2023-07-02T08:55:37;99519.34;;;31.79;36.25
58757;BME280;44527;47.460;19.016;2023-07-02T08:58:39;99521.59;;;31.50;36.15
58757;BME280;44527;47.460;19.016;2023-07-02T09:01:46;99522.09;;;31.20;35.84
58757;BME280;44527;47.460;19.016;2023-07-02T09:04:58;99515.00;;;30.64;38.13
58757;BME280;44527;47.460;19.016;2023-07-02T09:08:01;99508.91;;;30.52;38.41
58757;BME280;44527;47.460;19.016;2023-07-02T09:11:13;99512.03;;;30.44;38.50
58757;BME280;44527;47.460;19.016;2023-07-02T09:14:28;99517.25;;;30.51;37.31
58757;BME280;44527;47.460;19.016;2023-07-02T09:17:33;99517.56;;;30.32;36.73
58757;BME280;44527;47.460;19.016;2023-07-02T09:20:35;99517.03;;;30.13;37.62
58757;BME280;44527;47.460;19.016;2023-07-02T09:23:37;99513.78;;;30.33;36.92
58757;BME280;44527;47.460;19.016;2023-07-02T09:26:48;99511.50;;;30.69;36.77
58757;BME280;44527;47.460;19.016;2023-07-02T09:29:53;99507.63;;;30.82;37.25
58757;BME280;44527;47.460;19.016;2023-07-02T09:33:06;99513.44;;;31.50;36.93
58757;BME280;44527;47.460;19.016;2023-07-02T09:36:09;99507.00;;;31.56;36.75
58757;BME280;44527;47.460;19.016;2023-07-02T09:39:17;99506.41;;;31.54;36.74
58757;BME280;44527;47.460;19.016;2023-07-02T09:42:21;99516.72;;;31.89;35.05
58757;BME280;44527;47.460;19.016;2023-07-02T09:45:24;99519.06;;;31.75;35.89
58757;BME280;44527;47.460;19.016;2023-07-02T09:48:28;99515.75;;;31.68;35.63
58757;BME280;44527;47.460;19.016;2023-07-02T09:51:33;99511.50;;;31.77;34.70
58757;BME280;44527;47.460;19.016;2023-07-02T09:54:39;99505.84;;;31.47;35.98
58757;BME280;44527;47.460;19.016;2023-07-02T09:57:43;99512.66;;;31.54;36.57
58757;BME280;44527;47.460;19.016;2023-07-02T10:00:46;99511.91;;;31.59;35.01
58757;BME280;44527;47.460;19.016;2023-07-02T10:03:52;99506.53;;;31.10;35.18
58757;BME280;44527;47.460;19.016;2023-07-02T10:06:56;99505.34;;;30.96;36.38
58757;BME280;44527;47.460;19.016;2023-07-02T10:09:59;99505.78;;;31.14;36.87
58757;BME280;44527;47.460;19.016;2023-07-02T10:13:02;99507.34;;;31.70;36.68
58757;BME280;44527;47.460;19.016;2023-07-02T10:16:05;99514.44;;;31.76;35.92
58757;BME280;44527;47.460;19.016;2023-07-02T10:19:11;99509.09;;;31.49;34.23
58757;BME280;44527;47.460;19.016;2023-07-02T10:22:14;99515.03;;;31.46;34.51
58757;BME280;44527;47.460;19.016;2023-07-02T10:25:27;99516.13;;;31.45;35.72
58757;BME280;44527;47.460;19.016;2023-07-02T10:28:30;99516.06;;;31.40;36.60
58757;BME280;44527;47.460;19.016;2023-07-02T10:31:33;99513.66;;;31.16;35.71
58757;BME280;44527;47.460;19.016;2023-07-02T10:34:36;99507.84;;;31.02;36.95
58757;BME280;44527;47.460;19.016;2023-07-02T10:37:38;99505.72;;;31.09;36.00
58757;BME280;44527;47.460;19.016;2023-07-02T10:40:42;99501.78;;;30.46;36.94
58757;BME280;44527;47.460;19.016;2023-07-02T10:43:44;99496.22;;;30.58;37.54
58757;BME280;44527;47.460;19.016;2023-07-02T10:46:48;99492.88;;;30.51;37.49
58757;BME280;44527;47.460;19.016;2023-07-02T10:49:51;99500.06;;;30.62;37.15
58757;BME280;44527;47.460;19.016;2023-07-02T10:52:53;99507.09;;;31.12;37.08
58757;BME280;44527;47.460;19.016;2023-07-02T10:55:56;99500.00;;;31.06;36.80
58757;BME280;44527;47.460;19.016;2023-07-02T10:59:03;99489.84;;;30.69;37.85
58757;BME280;44527;47.460;19.016;2023-07-02T11:02:06;99488.13;;;30.85;38.05
58757;BME280;44527;47.460;19.016;2023-07-02T11:05:10;99482.91;;;31.32;36.29
58757;BME280;44527;47.460;19.016;2023-07-02T11:08:15;99488.44;;;31.43;37.46
58757;BME280;44527;47.460;19.016;2023-07-02T11:11:18;99486.34;;;31.50;36.49
58757;BME280;44527;47.460;19.016;2023-07-02T11:14:28;99493.09;;;31.52;36.22
58757;BME280;44527;47.460;19.016;2023-07-02T11:17:31;99480.31;;;31.16;36.58
58757;BME280;44527;47.460;19.016;2023-07-02T11:20:34;99486.75;;;31.09;37.30
58757;BME280;44527;47.460;19.016;2023-07-02T11:23:36;99487.69;;;30.93;37.81
58757;BME280;44527;47.460;19.016;2023-07-02T11:26:40;99487.75;;;30.98;36.40
58757;BME280;44527;47.460;19.016;2023-07-02T11:29:43;99481.91;;;30.84;38.03
58757;BME280;44527;47.460;19.016;2023-07-02T11:32:53;99486.50;;;30.84;36.34
58757;BME280;44527;47.460;19.016;2023-07-02T11:35:56;99486.31;;;30.68;36.60
58757;BME280;44527;47.460;19.016;2023-07-02T11:38:58;99488.66;;;30.82;36.25
58757;BME280;44527;47.460;19.016;2023-07-02T11:42:00;99479.53;;;30.44;37.33
58757;BME280;44527;47.460;19.016;2023-07-02T11:45:03;99485.66;;;30.34;37.35
58757;BME280;44527;47.460;19.016;2023-07-02T11:48:06;99485.72;;;30.61;37.43
58757;BME280;44527;47.460;19.016;2023-07-02T11:51:08;99484.63;;;30.84;37.60
58757;BME280;44527;47.460;19.016;2023-07-02T11:54:11;99489.41;;;30.77;36.64
58757;BME280;44527;47.460;19.016;2023-07-02T11:57:13;99481.25;;;30.50;36.03
58757;BME280;44527;47.460;19.016;2023-07-02T12:00:18;99476.06;;;30.49;37.70
58757;BME280;44527;47.460;19.016;2023-07-02T12:03:21;99476.69;;;30.78;36.14
58757;BME280;44527;47.460;19.016;2023-07-02T12:06:23;99479.31;;;30.73;36.04
58757;BME280;44527;47.460;19.016;2023-07-02T12:09:26;99480.16;;;31.00;35.92
58757;BME280;44527;47.460;19.016;2023-07-02T12:12:29;99480.28;;;30.61;35.48
58757;BME280;44527;47.460;19.016;2023-07-02T12:15:32;99474.19;;;30.49;35.99
58757;BME280;44527;47.460;19.016;2023-07-02T12:18:34;99486.03;;;30.65;34.97
58757;BME280;44527;47.460;19.016;2023-07-02T12:21:38;99489.06;;;30.47;35.94
58757;BME280;44527;47.460;19.016;2023-07-02T12:24:40;99490.94;;;30.24;36.56
58757;BME280;44527;47.460;19.016;2023-07-02T12:27:43;99471.44;;;30.22;36.96
58757;BME280;44527;47.460;19.016;2023-07-02T12:30:45;99474.44;;;30.26;37.55
58757;BME280;44527;47.460;19.016;2023-07-02T12:33:48;99473.69;;;30.30;37.16
58757;BME280;44527;47.460;19.016;2023-07-02T12:36:50;99478.47;;;30.45;37.03
58757;BME280;44527;47.460;19.016;2023-07-02T12:39:53;99475.00;;;30.50;36.49
58757;BME280;44527;47.460;19.016;2023-07-02T12:42:55;99476.50;;;30.18;38.16
58757;BME280;44527;47.460;19.016;2023-07-02T12:45:58;99472.53;;;30.48;38.24
58757;BME280;44527;47.460;19.016;2023-07-02T12:49:01;99475.69;;;30.62;37.38
58757;BME280;44527;47.460;19.016;2023-07-02T12:52:03;99484.78;;;31.00;36.16
58757;BME280;44527;47.460;19.016;2023-07-02T12:55:06;99483.50;;;31.07;36.30
58757;BME280;44527;47.460;19.016;2023-07-02T12:58:09;99470.78;;;31.13;36.13
58757;BME280;44527;47.460;19.016;2023-07-02T13:01:11;99471.19;;;30.73;36.64
58757;BME280;44527;47.460;19.016;2023-07-02T13:04:16;99473.69;;;30.52;37.87
58757;BME280;44527;47.460;19.016;2023-07-02T13:07:18;99474.06;;;30.39;38.38
58757;BME280;44527;47.460;19.016;2023-07-02T13:10:21;99467.91;;;30.21;38.32
58757;BME280;44527;47.460;19.016;2023-07-02T13:13:24;99478.16;;;30.03;38.40
58757;BME280;44527;47.460;19.016;2023-07-02T13:16:30;99477.22;;;29.92;38.74
58757;BME280;44527;47.460;19.016;2023-07-02T13:19:32;99480.34;;;29.84;39.33
58757;BME280;44527;47.460;19.016;2023-07-02T13:22:35;99480.00;;;29.97;39.36
58757;BME280;44527;47.460;19.016;2023-07-02T13:25:39;99473.69;;;30.30;38.51
58757;BME280;44527;47.460;19.016;2023-07-02T13:28:42;99472.50;;;30.43;37.97
58757;BME280;44527;47.460;19.016;2023-07-02T13:31:44;99472.22;;;30.44;36.67
58757;BME280;44527;47.460;19.016;2023-07-02T13:34:46;99476.34;;;30.47;37.02
58757;BME280;44527;47.460;19.016;2023-07-02T13:37:49;99469.28;;;30.24;36.77
58757;BME280;44527;47.460;19.016;2023-07-02T13:40:51;99466.28;;;30.04;37.84
58757;BME280;44527;47.460;19.016;2023-07-02T13:43:54;99466.91;;;30.28;37.70
58757;BME280;44527;47.460;19.016;2023-07-02T13:46:57;99465.13;;;30.38;36.40
58757;BME280;44527;47.460;19.016;2023-07-02T13:50:01;99470.16;;;30.30;36.75
58757;BME280;44527;47.460;19.016;2023-07-02T13:53:04;99459.13;;;30.36;35.70
58757;BME280;44527;47.460;19.016;2023-07-02T13:56:07;99459.50;;;30.45;36.14
58757;BME280;44527;47.460;19.016;2023-07-02T13:59:09;99472.00;;;30.46;34.20
58757;BME280;44527;47.460;19.016;2023-07-02T14:02:12;99479.28;;;30.23;35.65
58757;BME280;44527;47.460;19.016;2023-07-02T14:05:14;99468.97;;;30.20;36.20
58757;BME280;44527;47.460;19.016;2023-07-02T14:08:17;99460.50;;;30.17;35.90
58757;BME280;44527;47.460;19.016;2023-07-02T14:11:20;99477.31;;;30.19;37.51
58757;BME280;44527;47.460;19.016;2023-07-02T14:14:23;99477.97;;;30.26;36.98
58757;BME280;44527;47.460;19.016;2023-07-02T14:17:25;99470.00;;;30.19;36.81
58757;BME280;44527;47.460;19.016;2023-07-02T14:20:28;99475.75;;;29.84;37.13
58757;BME280;44527;47.460;19.016;2023-07-02T14:23:31;99476.47;;;29.96;37.28
58757;BME280;44527;47.460;19.016;2023-07-02T14:26:33;99470.28;;;29.79;37.98
58757;BME280;44527;47.460;19.016;2023-07-02T14:29:35;99478.22;;;29.69;38.30
58757;BME280;44527;47.460;19.016;2023-07-02T14:32:38;99476.34;;;29.52;38.19
58757;BME280;44527;47.460;19.016;2023-07-02T14:35:43;99483.88;;;29.34;38.22
58757;BME280;44527;47.460;19.016;2023-07-02T14:38:45;99484.81;;;29.11;38.00
58757;BME280;44527;47.460;19.016;2023-07-02T14:41:48;99479.84;;;29.02;38.66
58757;BME280;44527;47.460;19.016;2023-07-02T14:44:50;99480.25;;;29.11;38.39
58757;BME280;44527;47.460;19.016;2023-07-02T14:47:53;99489.03;;;29.18;39.32
58757;BME280;44527;47.460;19.016;2023-07-02T14:51:00;99487.81;;;28.97;39.66
58757;BME280;44527;47.460;19.016;2023-07-02T14:54:03;99486.97;;;28.68;40.69
58757;BME280;44527;47.460;19.016;2023-07-02T14:57:08;99485.53;;;28.49;41.48
58757;BME280;44527;47.460;19.016;2023-07-02T15:00:11;99493.03;;;28.47;41.74
58757;BME280;44527;47.460;19.016;2023-07-02T15:03:14;99487.41;;;28.48;41.56
58757;BME280;44527;47.460;19.016;2023-07-02T15:06:18;99487.94;;;28.62;41.37
58757;BME280;44527;47.460;19.016;2023-07-02T15:09:20;99491.78;;;28.78;41.37
58757;BME280;44527;47.460;19.016;2023-07-02T15:12:23;99488.44;;;28.59;41.44
58757;BME280;44527;47.460;19.016;2023-07-02T15:15:25;99491.06;;;28.30;43.11
58757;BME280;44527;47.460;19.016;2023-07-02T15:18:29;99498.37;;;28.18;41.97
58757;BME280;44527;47.460;19.016;2023-07-02T15:21:31;99494.72;;;28.01;41.55
58757;BME280;44527;47.460;19.016;2023-07-02T15:24:34;99501.41;;;27.75;41.93
58757;BME280;44527;47.460;19.016;2023-07-02T15:27:38;99495.72;;;27.83;41.96
58757;BME280;44527;47.460;19.016;2023-07-02T15:30:41;99490.19;;;28.01;41.78
58757;BME280;44527;47.460;19.016;2023-07-02T15:33:43;99491.22;;;27.88;39.57
58757;BME280;44527;47.460;19.016;2023-07-02T15:36:48;99488.66;;;27.82;39.15
58757;BME280;44527;47.460;19.016;2023-07-02T15:39:50;99492.63;;;27.79;39.40
58757;BME280;44527;47.460;19.016;2023-07-02T15:42:53;99490.53;;;27.81;39.89
58757;BME280;44527;47.460;19.016;2023-07-02T15:45:55;99493.56;;;27.85;40.46
58757;BME280;44527;47.460;19.016;2023-07-02T15:48:58;99493.00;;;27.83;40.00
58757;BME280;44527;47.460;19.016;2023-07-02T15:52:03;99501.16;;;27.76;40.70
58757;BME280;44527;47.460;19.016;2023-07-02T15:55:06;99501.88;;;27.60;40.43
58757;BME280;44527;47.460;19.016;2023-07-02T15:58:08;99509.84;;;27.66;40.95